createdAt,value
2024-01-20T00:02:12.225Z,10.56
2024-01-20T00:04:46.347Z,10.54
2024-01-20T00:07:19.993Z,10.52
2024-01-20T00:09:53.165Z,10.46
2024-01-20T00:12:26.430Z,10.40
2024-01-20T00:14:59.749Z,10.36
2024-01-20T00:17:35.421Z,10.31
2024-01-20T00:20:00.152Z,10.25
2024-01-20T00:22:34.672Z,10.19
2024-01-20T00:25:11.587Z,10.10
2024-01-20T00:27:45.905Z,9.99
2024-01-20T00:30:11.273Z,9.92
2024-01-20T00:32:45.719Z,9.86
2024-01-20T00:35:19.132Z,9.81
2024-01-20T00:37:52.618Z,9.76
2024-01-20T00:40:17.519Z,9.71
2024-01-20T00:42:51.269Z,9.66
2024-01-20T00:45:25.063Z,9.62
2024-01-20T00:47:58.141Z,9.57
2024-01-20T00:50:28.711Z,9.52
2024-01-20T00:53:02.275Z,9.44
2024-01-20T00:55:25.071Z,9.39
2024-01-20T00:57:55.583Z,9.33
2024-01-20T01:00:29.223Z,9.27
2024-01-20T01:02:52.867Z,9.23
2024-01-20T01:05:25.923Z,9.18
2024-01-20T01:07:59.030Z,9.14
2024-01-20T01:10:32.571Z,9.10
2024-01-20T01:13:06.976Z,9.07
2024-01-20T01:15:40.073Z,9.04
2024-01-20T01:18:13.459Z,9.01
2024-01-20T01:20:47.478Z,8.99
2024-01-20T01:23:20.938Z,8.96
2024-01-20T01:26:17.340Z,8.97
2024-01-20T01:28:51.019Z,8.92
2024-01-20T01:31:17.136Z,8.92
2024-01-20T01:33:50.448Z,8.91
2024-01-20T01:36:24.083Z,8.90
2024-01-20T01:38:41.072Z,8.91
2024-01-20T01:41:14.798Z,8.92
2024-01-20T01:43:39.105Z,8.93
2024-01-20T01:46:12.970Z,8.92
2024-01-20T01:48:47.989Z,8.91
2024-01-20T01:51:21.851Z,8.92
2024-01-20T01:53:55.514Z,8.93
2024-01-20T01:56:28.966Z,8.94
2024-01-20T01:59:02.683Z,8.95
2024-01-20T02:01:28.534Z,8.97
2024-01-20T02:03:53.067Z,8.99
2024-01-20T02:06:27.196Z,8.99
2024-01-20T02:08:51.416Z,9.00
2024-01-20T02:11:25.461Z,9.00
2024-01-20T02:13:59.003Z,9.00
2024-01-20T02:16:22.973Z,8.99
2024-01-20T02:18:42.101Z,9.01
2024-01-20T02:21:14.900Z,9.04
2024-01-20T02:23:51.197Z,9.06
2024-01-20T02:26:12.971Z,9.09
2024-01-20T02:28:26.881Z,9.10
2024-01-20T02:31:00.223Z,9.14
2024-01-20T02:33:14.902Z,9.17
2024-01-20T02:35:48.746Z,9.19
2024-01-20T02:38:21.926Z,9.20
2024-01-20T02:40:44.746Z,9.23
2024-01-20T02:43:09.026Z,9.25
2024-01-20T02:45:33.138Z,9.26
2024-01-20T02:48:07.087Z,9.27
2024-01-20T02:50:40.576Z,9.28
2024-01-20T02:53:13.976Z,9.29
2024-01-20T02:55:41.255Z,9.30
2024-01-20T02:58:14.642Z,9.32
2024-01-20T03:00:49.060Z,9.33
2024-01-20T03:03:23.250Z,9.34
2024-01-20T03:05:57.854Z,9.35
2024-01-20T03:08:22.921Z,9.36
2024-01-20T03:10:56.826Z,9.39
2024-01-20T03:13:29.737Z,9.42
2024-01-20T03:16:03.913Z,9.41
2024-01-20T03:18:39.611Z,9.41
2024-01-20T03:21:13.404Z,9.40
2024-01-20T03:23:48.224Z,9.40
2024-01-20T03:26:21.816Z,9.40
2024-01-20T03:28:55.179Z,9.39
2024-01-20T03:31:29.263Z,9.35
2024-01-20T03:34:02.730Z,9.32
2024-01-20T03:36:37.184Z,9.31
2024-01-20T03:39:01.836Z,9.30
2024-01-20T03:41:24.281Z,9.30
2024-01-20T03:43:54.773Z,9.30
2024-01-20T03:46:29.156Z,9.29
2024-01-20T03:49:02.556Z,9.26
2024-01-20T03:51:16.333Z,9.24
2024-01-20T03:53:50.945Z,9.22
2024-01-20T03:56:24.492Z,9.21
2024-01-20T03:58:58.418Z,9.23
2024-01-20T04:01:32.495Z,9.22
2024-01-20T04:04:06.999Z,9.20
2024-01-20T04:06:34.559Z,9.20
2024-01-20T04:09:08.596Z,9.18
2024-01-20T04:11:41.489Z,9.17
2024-01-20T04:14:12.234Z,9.17
2024-01-20T04:16:45.598Z,9.15
2024-01-20T04:19:19.883Z,9.12
2024-01-20T04:21:52.902Z,9.09
2024-01-20T04:24:26.610Z,9.05
2024-01-20T04:26:49.288Z,9.02
2024-01-20T04:29:22.767Z,8.97
2024-01-20T04:31:45.130Z,8.92
2024-01-20T04:34:17.942Z,8.88
2024-01-20T04:36:40.222Z,8.85
2024-01-20T04:39:13.845Z,8.82
2024-01-20T04:41:47.033Z,8.79
2024-01-20T04:44:20.065Z,8.74
2024-01-20T04:46:53.932Z,8.69
2024-01-20T04:49:26.933Z,8.64
2024-01-20T04:51:57.562Z,8.57
2024-01-20T04:54:19.850Z,8.51
2024-01-20T04:56:53.229Z,8.45
2024-01-20T04:59:15.163Z,8.39
2024-01-20T05:01:47.520Z,8.33
2024-01-20T05:04:21.634Z,8.27
2024-01-20T05:06:56.375Z,8.21
2024-01-20T05:09:18.686Z,8.18
2024-01-20T05:11:51.811Z,8.16
2024-01-20T05:14:25.267Z,8.15
2024-01-20T05:16:59.148Z,8.15
2024-01-20T05:20:32.852Z,8.14
2024-01-20T05:22:26.802Z,8.12
2024-01-20T05:25:00.746Z,8.13
2024-01-20T05:27:34.299Z,8.14
2024-01-20T05:30:12.173Z,8.14
2024-01-20T05:32:33.901Z,8.12
2024-01-20T05:35:08.634Z,8.10
2024-01-20T05:37:42.693Z,8.08
2024-01-20T05:41:04.932Z,8.09
2024-01-20T05:43:14.078Z,8.09
2024-01-20T05:45:47.908Z,8.08
2024-01-20T05:48:21.836Z,8.08
2024-01-20T05:50:49.494Z,8.08
2024-01-20T05:53:24.096Z,8.08
2024-01-20T05:55:56.928Z,8.08
2024-01-20T05:58:27.782Z,8.05
2024-01-20T06:00:50.259Z,8.02
2024-01-20T06:03:23.598Z,8.00
2024-01-20T06:05:57.044Z,7.98
2024-01-20T06:08:30.372Z,7.97
2024-01-20T06:11:04.937Z,7.95
2024-01-20T06:13:39.361Z,7.95
2024-01-20T06:16:15.229Z,7.93
2024-01-20T06:18:48.184Z,7.92
2024-01-20T06:21:23.982Z,7.92
2024-01-20T06:23:57.109Z,7.91
2024-01-20T06:26:30.554Z,7.91
2024-01-20T06:29:04.614Z,7.91
2024-01-20T06:31:37.402Z,7.92
2024-01-20T06:34:10.924Z,7.91
2024-01-20T06:36:44.256Z,7.90
2024-01-20T06:39:17.363Z,7.89
2024-01-20T06:41:52.672Z,7.89
2024-01-20T06:44:25.796Z,7.89
2024-01-20T06:46:59.341Z,7.90
2024-01-20T06:49:32.686Z,7.90
2024-01-20T06:52:07.730Z,7.89
2024-01-20T06:54:42.089Z,7.88
2024-01-20T06:57:15.289Z,7.86
2024-01-20T06:59:48.950Z,7.85
2024-01-20T07:02:21.774Z,7.84
2024-01-20T07:04:55.209Z,7.83
2024-01-20T07:07:29.091Z,7.83
2024-01-20T07:10:02.714Z,7.83
2024-01-20T07:12:36.004Z,7.84
2024-01-20T07:15:10.325Z,7.85
2024-01-20T07:17:43.159Z,7.86
2024-01-20T07:20:18.264Z,7.85
2024-01-20T07:22:52.132Z,7.85
2024-01-20T07:25:15.640Z,7.83
2024-01-20T07:27:49.123Z,7.81
2024-01-20T07:30:23.664Z,7.81
2024-01-20T07:33:00.396Z,7.81
2024-01-20T07:35:24.117Z,7.81
2024-01-20T07:37:56.886Z,7.81
2024-01-20T07:40:30.280Z,7.81
2024-01-20T07:43:05.945Z,7.83
2024-01-20T07:45:40.169Z,7.85
2024-01-20T07:48:13.706Z,7.89
2024-01-20T07:50:47.597Z,7.90
2024-01-20T07:53:21.073Z,7.90
2024-01-20T07:55:54.813Z,7.91
2024-01-20T07:58:28.193Z,7.91
2024-01-20T08:01:01.443Z,7.92
2024-01-20T08:03:34.872Z,7.92
2024-01-20T08:06:07.206Z,7.92
2024-01-20T08:08:40.336Z,7.93
2024-01-20T08:11:14.376Z,7.93
2024-01-20T08:13:47.600Z,7.94
2024-01-20T08:16:22.182Z,7.94
2024-01-20T08:18:55.382Z,7.94
2024-01-20T08:21:17.244Z,7.95
2024-01-20T08:23:48.048Z,7.95
2024-01-20T08:26:20.856Z,7.94
2024-01-20T08:28:41.514Z,7.94
2024-01-20T08:31:14.993Z,7.95
2024-01-20T08:33:47.938Z,7.95
2024-01-20T08:36:11.075Z,7.95
2024-01-20T08:38:32.931Z,7.94
2024-01-20T08:40:56.610Z,7.95
2024-01-20T08:43:29.889Z,7.95
2024-01-20T08:45:58.042Z,7.95
2024-01-20T08:48:31.672Z,7.97
2024-01-20T08:51:05.981Z,7.97
2024-01-20T08:53:28.513Z,7.98
2024-01-20T08:56:02.459Z,7.98
2024-01-20T08:58:35.672Z,7.97
2024-01-20T09:01:08.801Z,7.95
2024-01-20T09:03:42.014Z,7.95
2024-01-20T09:06:05.266Z,7.95
2024-01-20T09:08:38.486Z,7.95
2024-01-20T09:11:12.792Z,7.94
2024-01-20T09:13:45.484Z,7.95
2024-01-20T09:16:06.091Z,7.95
2024-01-20T09:18:39.934Z,7.93
2024-01-20T09:21:16.767Z,7.91
2024-01-20T09:23:53.037Z,7.89
2024-01-20T09:26:26.532Z,7.89
2024-01-20T09:28:51.777Z,7.91
2024-01-20T09:31:22.704Z,7.93
2024-01-20T09:33:56.228Z,7.93
2024-01-20T09:36:30.170Z,7.93
2024-01-20T09:39:04.423Z,7.92
2024-01-20T09:41:38.583Z,7.90
2024-01-20T09:44:03.010Z,7.88
2024-01-20T09:46:36.284Z,7.86
2024-01-20T09:49:10.065Z,7.84
2024-01-20T09:51:49.764Z,7.81
2024-01-20T09:54:25.512Z,7.79
2024-01-20T09:56:59.224Z,7.78
2024-01-20T09:59:24.226Z,7.76
2024-01-20T10:01:58.342Z,7.75
2024-01-20T10:04:33.297Z,7.74
2024-01-20T10:07:06.061Z,7.75
2024-01-20T10:09:39.773Z,7.76
2024-01-20T10:12:14.115Z,7.76
2024-01-20T10:14:46.886Z,7.78
2024-01-20T10:17:17.029Z,7.79
2024-01-20T10:19:50.610Z,7.82
2024-01-20T10:22:16.687Z,7.85
2024-01-20T10:24:57.261Z,7.87
2024-01-20T10:27:30.269Z,7.89
2024-01-20T10:30:03.120Z,7.90
2024-01-20T10:32:47.561Z,7.91
2024-01-20T10:35:26.993Z,7.92
2024-01-20T10:38:04.754Z,7.93
2024-01-20T10:40:41.544Z,7.95
2024-01-20T10:43:19.312Z,7.98
2024-01-20T10:46:11.179Z,7.99
2024-01-20T10:48:51.717Z,8.02
2024-01-20T10:51:29.577Z,8.04
2024-01-20T10:54:05.440Z,8.06
2024-01-20T10:56:41.292Z,8.09
2024-01-20T10:59:18.693Z,8.11
2024-01-20T11:01:52.667Z,8.10
2024-01-20T11:04:05.696Z,8.10
2024-01-20T11:06:40.109Z,8.09
2024-01-20T11:09:04.424Z,8.08
2024-01-20T11:11:39.960Z,8.06
2024-01-20T11:14:06.968Z,8.04
2024-01-20T11:16:40.714Z,8.06
2024-01-20T11:19:16.247Z,8.08
2024-01-20T11:21:49.515Z,8.11
2024-01-20T11:24:39.156Z,8.13
2024-01-20T11:27:13.442Z,8.15
2024-01-20T11:29:46.720Z,8.16
2024-01-20T11:32:19.537Z,8.14
2024-01-20T11:37:41.431Z,8.11
2024-01-20T11:40:16.507Z,8.06
2024-01-20T11:42:38.924Z,8.03
2024-01-20T11:45:14.261Z,8.00
2024-01-20T11:47:50.216Z,8.00
2024-01-20T11:50:15.977Z,7.99
2024-01-20T11:52:39.608Z,7.98
2024-01-20T11:55:14.100Z,7.97
2024-01-20T11:57:47.894Z,7.96
2024-01-20T12:00:21.895Z,7.96
2024-01-20T12:02:56.249Z,7.97
2024-01-20T12:05:29.644Z,7.96
2024-01-20T12:07:53.203Z,7.95
2024-01-20T12:10:18.339Z,7.95
2024-01-20T12:13:15.794Z,7.94
2024-01-20T12:15:45.380Z,7.94
2024-01-20T12:18:20.582Z,7.93
2024-01-20T12:20:34.831Z,7.92
2024-01-20T12:23:02.095Z,7.92
2024-01-20T12:25:26.260Z,7.92
2024-01-20T12:27:53.018Z,7.89
2024-01-20T12:30:18.920Z,7.86
2024-01-20T12:32:52.330Z,7.78
2024-01-20T12:35:26.228Z,7.71
2024-01-20T12:37:59.375Z,7.65
2024-01-20T12:40:33.457Z,7.60
2024-01-20T12:42:57.112Z,7.55
2024-01-20T12:45:31.454Z,7.52
2024-01-20T12:48:06.193Z,7.49
2024-01-20T12:50:39.706Z,7.45
2024-01-20T12:53:12.836Z,7.43
2024-01-20T12:55:38.231Z,7.43
2024-01-20T12:58:12.021Z,7.46
2024-01-20T13:00:45.251Z,7.50
2024-01-20T13:03:19.263Z,7.55
2024-01-20T13:05:45.206Z,7.59
2024-01-20T13:08:18.374Z,7.63
2024-01-20T13:10:52.494Z,7.65
2024-01-20T13:13:27.979Z,7.67
2024-01-20T13:15:52.602Z,7.69
2024-01-20T13:18:26.175Z,7.70
2024-01-20T13:20:52.511Z,7.72
2024-01-20T13:23:16.568Z,7.73
2024-01-20T13:25:49.403Z,7.73
2024-01-20T13:28:23.181Z,7.73
2024-01-20T13:30:56.705Z,7.75
2024-01-20T13:33:29.591Z,7.79
2024-01-20T13:36:02.857Z,7.85
2024-01-20T13:38:33.034Z,7.89
2024-01-20T13:41:06.499Z,7.91
2024-01-20T13:43:39.377Z,7.92
2024-01-20T13:46:09.627Z,7.93
2024-01-20T13:48:42.847Z,7.93
2024-01-20T13:51:16.216Z,7.94
2024-01-20T13:53:49.701Z,7.97
2024-01-20T13:56:23.224Z,8.02
2024-01-20T13:58:57.572Z,8.07
2024-01-20T14:01:31.165Z,8.11
2024-01-20T14:04:04.464Z,8.12
2024-01-20T14:06:38.255Z,8.13
2024-01-20T14:09:12.131Z,8.15
2024-01-20T14:11:46.211Z,8.16
2024-01-20T14:14:12.686Z,8.16
2024-01-20T14:16:45.835Z,8.18
2024-01-20T14:19:19.336Z,8.21
2024-01-20T14:21:52.597Z,8.24
2024-01-20T14:24:25.662Z,8.28
2024-01-20T14:26:58.929Z,8.29
2024-01-20T14:29:32.642Z,8.31
2024-01-20T14:32:05.973Z,8.33
2024-01-20T14:34:39.109Z,8.35
2024-01-20T14:37:03.648Z,8.36
2024-01-20T14:39:28.668Z,8.35
2024-01-20T14:41:59.039Z,8.32
2024-01-20T14:44:32.294Z,8.29
2024-01-20T14:47:05.931Z,8.24
2024-01-20T14:49:38.894Z,8.20
2024-01-20T14:52:12.929Z,8.17
2024-01-20T14:54:36.169Z,8.13
2024-01-20T14:57:06.275Z,8.08
2024-01-20T14:59:39.398Z,8.03
2024-01-20T15:02:10.430Z,8.01
2024-01-20T15:04:44.284Z,7.99
2024-01-20T15:07:19.925Z,7.99
2024-01-20T15:09:53.593Z,8.00
2024-01-20T15:12:15.413Z,8.00
2024-01-20T15:14:48.339Z,7.98
2024-01-20T15:17:21.574Z,7.97
2024-01-20T15:19:55.258Z,7.96
2024-01-20T15:22:28.556Z,7.95
2024-01-20T15:25:01.906Z,7.96
2024-01-20T15:27:37.911Z,7.96
2024-01-20T15:30:00.753Z,7.96
2024-01-20T15:32:34.094Z,7.97
2024-01-20T15:35:08.120Z,7.97
2024-01-20T15:37:41.805Z,7.98
2024-01-20T15:40:18.521Z,7.97
2024-01-20T15:42:52.408Z,7.97
2024-01-20T15:45:25.611Z,7.96
2024-01-20T15:47:59.543Z,7.97
